Yosemite National Park, CA

5:44 PM PST on March 06, 2015 (GMT -0800)
RAWS WAWONA CA US | Change Station
CLOSE
Current Station
Personal Weather Station
Location: Tuolumne Meadows, CA
Elevation: 4309 ft
Nearby Weather Stations

Elev 4309 ft 37.53 °N, 119.64 °W | Updated 53 minutes ago

Clear
Clear
62 °F
Feels Like 62 °F
N
4
Wind Variable Wind from South
Gusts 7.0 mph

Today
High -- | Low -- °F
--% Chance of Precip.
Yesterday
High -- | Low -- °F
Precip. -- in
6:22 AM 5:56 PM
Full, 98% visible
Pressure 30.16 in
Visibility 10.0 miles
Clouds Clear
Dew Point 37 °F
Humidity 39%
Rainfall in
Snow Depth Not available.
UV 0 out of 12
Pollen 8.20 out of 12
Air Quality Not available.
Flu Activity Not available.
METAR KO22 070115Z AUTO 00000KT 10SM CLR 18/04 A3016 RMK AO1

More Conditions Fewer Conditions

Pressure 30.16 in
Visibility 10.0 miles
Clouds Clear
Dew Point 37 °F
Humidity 39%
Rainfall in
Snow Depth Not available.
UV 0 out of 12
Pollen 8.20 out of 12
Air Quality Not available.
Flu Activity Not available.
METAR KO22 070115Z AUTO 00000KT 10SM CLR 18/04 A3016 RMK AO1

More Conditions Fewer Conditions

10-Day Weather Forecast

Almanac

Astronomy

Mar. 06, 2015 Rise Set
Actual Time
Civil Twilight
Nautical Twilight
Astronomical Twilight
Moon
Length of Visible Light
Length of Day
Tomorrow will be .
, % of the Moon is Illuminated

Today's Extremes

State Highs State Lows

Community

WunderPhotos

Upload Photos

1,803,494 photos uploaded!

WunderBlogs® & News

Nearby

Air Quality

  Air Quality AQ Index Pollutant
Not available.

Snow Depth

Station Depth Elevation

Earthquake Activity

City Distance Mag. Time & Date
Minimum magnitude displayed is 2.5.

Coastal Water Temperatures

Place Temperature

Nearby Weather Stations